Time;durP1;ratioP1;P1;durP2;ratioP2;P2;SDS_P1;SDS_P2;PMS_P1;PMS_P2;Temp;Humidity;BMP_temperature;BMP_pressure;BME280_temperature;BME280_humidity;BME280_pressure;Samples;Min_cycle;Max_cycle;Signal;HPM_P1;HPM_P2
2022/02/10 14:28:31;;;;;;;10.98;1.77;;;;;;;;;;5062981;28;20602;-46
2022/02/10 14:30:58;;;;;;;7.90;1.70;;;;;;;;;;5039015;28;20718;-41
2022/02/10 14:33:28;;;;;;;8.48;1.55;;;;;;;;;;5050027;28;20030;-43
2022/02/10 14:36:06;;;;;;;4.55;1.60;;;;;;;;;;5045572;28;20037;-41
2022/02/10 14:41:50;;;;;;;5.60;1.30;;;;;;;;;;5041385;28;20457;-40
2022/02/10 15:16:08;;;;;;;7.70;2.25;;;;;;;;;;4984726;28;20109;-36
2022/02/10 15:48:28;;;;;;;8.48;1.77;;;;;;;;;;5032744;28;20530;-35
2022/02/10 16:17:14;;;;;;;3.90;1.35;;;;;;;;;;5030477;28;20040;-35
2022/02/10 16:19:42;;;;;;;4.53;1.25;;;;;;;;;;5029587;28;20037;-33
2022/02/10 16:24:49;;;;;;;8.27;1.60;;;;;;;;;;5034410;28;20029;-34
2022/02/10 16:27:29;;;;;;;7.38;1.60;;;;;;;;;;5038437;28;20107;-36
2022/02/10 16:30:00;;;;;;;6.47;1.13;;;;;;;;;;5035808;28;20495;-35
2022/02/10 16:32:27;;;;;;;7.90;2.35;;;;;;;;;;5022101;28;20032;-35
2022/02/10 16:34:55;;;;;;;7.63;1.52;;;;;;;;;;5029250;28;20029;-35
2022/02/10 16:37:22;;;;;;;7.20;1.50;;;;;;;;;;5031885;28;20033;-34
2022/02/10 16:39:48;;;;;;;6.60;1.50;;;;;;;;;;5028890;28;20037;-34
2022/02/10 16:42:16;;;;;;;9.18;1.75;;;;;;;;;;5029295;28;20029;-35
2022/02/10 16:44:43;;;;;;;9.38;2.05;;;;;;;;;;5028666;28;20056;-34
2022/02/10 16:47:10;;;;;;;11.95;2.08;;;;;;;;;;5028911;28;20037;-34
2022/02/10 16:49:38;;;;;;;6.82;1.77;;;;;;;;;;5030625;28;20030;-34
2022/02/10 16:52:07;;;;;;;5.43;1.42;;;;;;;;;;5033051;28;20439;-34
2022/02/10 16:54:39;;;;;;;7.67;1.70;;;;;;;;;;5036770;28;20102;-34
2022/02/10 17:02:24;;;;;;;6.38;1.88;;;;;;;;;;5029558;28;20132;-34
2022/02/10 17:18:49;;;;;;;190.55;110.53;;;;;;;;;;5032706;28;20036;-35
2022/02/10 17:21:27;;;;;;;182.68;103.38;;;;;;;;;;5026313;28;20057;-35
2022/02/10 17:26:56;;;;;;;170.00;100.60;;;;;;;;;;5021899;28;20060;-35
2022/02/10 17:29:41;;;;;;;159.15;93.07;;;;;;;;;;5028769;28;20030;-35
2022/02/10 17:34:50;;;;;;;163.13;93.90;;;;;;;;;;5029384;28;20140;-35
2022/02/10 17:53:37;;;;;;;195.35;108.30;;;;;;;;;;5029593;28;20041;-35
2022/02/10 17:56:04;;;;;;;203.52;111.78;;;;;;;;;;5029034;28;20021;-35
2022/02/10 17:58:30;;;;;;;190.23;108.95;;;;;;;;;;5026975;28;20446;-35
2022/02/10 18:00:57;;;;;;;185.45;105.95;;;;;;;;;;5027381;28;20485;-36
2022/02/10 18:03:23;;;;;;;169.38;99.43;;;;;;;;;;5025179;28;20072;-35
2022/02/10 18:08:25;;;;;;;155.30;94.72;;;;;;;;;;5025554;28;20049;-36
2022/02/10 18:16:07;;;;;;;148.15;89.03;;;;;;;;;;5028273;28;20029;-36
2022/02/10 18:18:41;;;;;;;160.13;91.03;;;;;;;;;;5023496;28;20079;-35
2022/02/10 18:21:34;;;;;;;150.50;86.88;;;;;;;;;;5027906;28;20214;-36
2022/02/10 18:26:33;;;;;;;143.07;85.68;;;;;;;;;;5028300;28;22645;-36
2022/02/10 18:29:17;;;;;;;141.52;85.78;;;;;;;;;;5029366;28;20566;-36
2022/02/10 18:35:40;;;;;;;143.32;83.45;;;;;;;;;;5028316;28;20052;-35
2022/02/10 19:05:39;;;;;;;110.97;66.60;;;;;;;;;;5027762;28;20036;-34
2022/02/10 19:10:02;;;;;;;118.07;69.07;;;;;;;;;;5027776;28;20029;-34
2022/02/10 19:12:32;;;;;;;118.93;69.35;;;;;;;;;;5027994;28;20107;-34
2022/02/10 19:15:10;;;;;;;112.15;65.90;;;;;;;;;;5025854;28;20034;-34
2022/02/10 19:17:37;;;;;;;115.43;65.68;;;;;;;;;;5028677;28;20144;-35
2022/02/10 19:20:05;;;;;;;111.72;66.15;;;;;;;;;;5031115;28;20028;-35
2022/02/10 19:22:31;;;;;;;106.18;63.60;;;;;;;;;;5031664;28;20112;-35
2022/02/10 19:24:57;;;;;;;94.88;61.97;;;;;;;;;;5030764;28;20084;-37
2022/02/10 19:27:23;;;;;;;97.00;59.83;;;;;;;;;;5029465;28;20056;-36
2022/02/10 19:29:56;;;;;;;104.07;62.08;;;;;;;;;;5031656;28;20025;-36
2022/02/10 19:32:22;;;;;;;101.53;60.15;;;;;;;;;;5030670;28;20448;-35
2022/02/10 19:34:50;;;;;;;102.65;59.67;;;;;;;;;;5031192;28;20037;-35
2022/02/10 19:37:16;;;;;;;103.80;59.80;;;;;;;;;;5030324;28;20037;-35
2022/02/10 19:39:45;;;;;;;100.43;59.08;;;;;;;;;;5029128;28;20026;-35
2022/02/10 19:42:11;;;;;;;97.28;57.28;;;;;;;;;;5023125;28;20030;-35
2022/02/10 19:44:39;;;;;;;88.72;54.60;;;;;;;;;;5025949;28;20040;-38
2022/02/10 19:47:06;;;;;;;93.68;55.88;;;;;;;;;;5024165;28;20479;-35
2022/02/10 19:49:32;;;;;;;91.65;55.45;;;;;;;;;;5023938;28;20487;-35
2022/02/10 19:51:59;;;;;;;96.15;55.35;;;;;;;;;;5026716;28;20029;-35
2022/02/10 19:54:28;;;;;;;87.78;55.78;;;;;;;;;;5027648;28;20032;-36
2022/02/10 19:56:55;;;;;;;99.60;55.97;;;;;;;;;;5025648;28;20475;-35
2022/02/10 19:59:28;;;;;;;81.30;53.42;;;;;;;;;;5024821;28;20045;-35
2022/02/10 20:01:55;;;;;;;85.32;51.05;;;;;;;;;;5025976;28;20048;-35
2022/02/10 20:04:23;;;;;;;86.15;51.78;;;;;;;;;;5026941;28;20025;-36
2022/02/10 20:06:49;;;;;;;83.75;52.78;;;;;;;;;;5025942;28;20041;-34
2022/02/10 20:09:16;;;;;;;87.90;49.50;;;;;;;;;;5023273;28;20812;-35
2022/02/10 20:11:42;;;;;;;85.78;50.30;;;;;;;;;;5026446;28;20052;-35
2022/02/10 20:14:09;;;;;;;89.28;50.65;;;;;;;;;;5022885;28;20037;-35
2022/02/10 20:16:35;;;;;;;80.60;48.97;;;;;;;;;;5026519;28;20040;-35
2022/02/10 20:19:02;;;;;;;72.10;46.10;;;;;;;;;;5026632;28;20104;-35
2022/02/10 20:21:30;;;;;;;74.88;44.83;;;;;;;;;;5028728;28;20463;-35
2022/02/10 20:23:56;;;;;;;76.82;45.92;;;;;;;;;;5026197;28;20144;-35
2022/02/10 20:26:22;;;;;;;68.68;42.30;;;;;;;;;;5018991;28;20112;-35
2022/02/10 20:28:48;;;;;;;71.47;42.47;;;;;;;;;;5027755;28;20471;-35
2022/02/10 20:31:16;;;;;;;70.72;43.15;;;;;;;;;;5029846;28;20534;-36
2022/02/10 20:33:43;;;;;;;74.70;42.65;;;;;;;;;;5032169;28;20021;-35
2022/02/10 20:36:09;;;;;;;64.90;38.65;;;;;;;;;;5027945;28;20033;-34
2022/02/10 20:38:39;;;;;;;72.55;41.22;;;;;;;;;;5030893;28;20041;-34
2022/02/10 20:41:08;;;;;;;72.18;40.83;;;;;;;;;;5025788;28;20025;-35
2022/02/10 20:43:35;;;;;;;70.75;39.33;;;;;;;;;;5027329;28;20406;-35
2022/02/10 20:46:04;;;;;;;65.18;39.03;;;;;;;;;;5029652;28;20087;-35
2022/02/10 20:48:32;;;;;;;68.32;40.88;;;;;;;;;;5031258;28;20092;-35
2022/02/10 20:50:59;;;;;;;64.65;37.97;;;;;;;;;;5028966;28;20483;-35
2022/02/10 20:53:25;;;;;;;69.13;40.13;;;;;;;;;;5031242;28;20475;-36
2022/02/10 20:55:55;;;;;;;62.97;37.03;;;;;;;;;;5028286;28;20033;-36
2022/02/10 20:58:24;;;;;;;64.97;37.15;;;;;;;;;;5029878;28;20056;-36
2022/02/10 21:00:51;;;;;;;62.65;36.30;;;;;;;;;;5031727;28;20029;-35
2022/02/10 21:03:21;;;;;;;61.67;37.10;;;;;;;;;;5031856;28;20633;-35
2022/02/10 21:05:48;;;;;;;62.75;35.90;;;;;;;;;;5026921;28;20029;-35
2022/02/10 21:09:06;;;;;;;61.63;34.75;;;;;;;;;;5029044;28;20479;-36
2022/02/10 21:11:02;;;;;;;61.25;36.03;;;;;;;;;;5021989;28;20025;-35
2022/02/10 21:13:30;;;;;;;57.15;36.35;;;;;;;;;;5028166;28;20035;-35
2022/02/10 21:15:56;;;;;;;53.17;32.72;;;;;;;;;;5029046;28;20029;-36
2022/02/10 21:18:24;;;;;;;58.53;34.42;;;;;;;;;;5030228;28;20026;-36
2022/02/10 21:20:55;;;;;;;55.00;33.58;;;;;;;;;;5029123;28;20025;-35
2022/02/10 21:23:39;;;;;;;52.10;32.75;;;;;;;;;;5029143;28;20392;-36
2022/02/10 21:26:06;;;;;;;50.75;31.40;;;;;;;;;;5028533;28;20060;-36
2022/02/10 21:28:36;;;;;;;51.90;29.75;;;;;;;;;;5030660;28;20033;-36
2022/02/10 21:31:05;;;;;;;52.27;30.40;;;;;;;;;;5026751;28;20435;-35
2022/02/10 21:33:46;;;;;;;48.63;30.67;;;;;;;;;;5025983;28;20033;-36
2022/02/10 21:39:08;;;;;;;47.38;28.75;;;;;;;;;;5029323;28;20039;-36
2022/02/10 22:00:46;;;;;;;52.33;28.58;;;;;;;;;;5040081;28;20093;-36
2022/02/10 22:03:26;;;;;;;45.35;26.60;;;;;;;;;;5024585;28;20053;-36
2022/02/10 22:06:17;;;;;;;44.83;24.73;;;;;;;;;;5027580;28;20452;-36
2022/02/10 22:09:17;;;;;;;51.55;25.17;;;;;;;;;;5025711;28;20033;-36
2022/02/10 22:12:11;;;;;;;38.95;25.33;;;;;;;;;;5026432;28;20655;-36
2022/02/10 22:19:56;;;;;;;43.85;24.52;;;;;;;;;;5026738;28;20034;-37
2022/02/10 22:22:32;;;;;;;40.60;23.80;;;;;;;;;;5022041;28;20032;-37
2022/02/10 22:25:00;;;;;;;40.22;22.65;;;;;;;;;;5026694;28;20034;-36
2022/02/10 22:27:29;;;;;;;40.05;23.92;;;;;;;;;;5026626;28;20482;-36
2022/02/10 22:30:03;;;;;;;31.60;21.13;;;;;;;;;;5025827;28;20060;-36
2022/02/10 22:32:49;;;;;;;34.42;20.63;;;;;;;;;;5028233;28;20095;-37
2022/02/10 22:35:15;;;;;;;32.67;21.70;;;;;;;;;;5028544;28;20029;-36
2022/02/10 22:37:42;;;;;;;33.50;22.23;;;;;;;;;;5028099;28;20452;-36
2022/02/10 22:40:35;;;;;;;30.35;18.67;;;;;;;;;;5028455;28;20080;-36
2022/02/10 22:42:57;;;;;;;35.88;21.35;;;;;;;;;;5025739;28;21202;-37
2022/02/10 22:45:23;;;;;;;31.90;18.58;;;;;;;;;;5027944;28;20160;-36
2022/02/10 22:47:49;;;;;;;34.83;18.15;;;;;;;;;;5026909;28;20045;-36
2022/02/10 22:50:16;;;;;;;33.50;18.98;;;;;;;;;;5031115;28;20029;-37
2022/02/10 22:52:42;;;;;;;28.33;16.67;;;;;;;;;;5031441;28;20025;-37
2022/02/10 22:55:08;;;;;;;31.70;18.13;;;;;;;;;;5030630;28;20447;-37
2022/02/10 22:57:35;;;;;;;30.30;16.17;;;;;;;;;;5031435;28;20026;-37
2022/02/10 23:00:06;;;;;;;26.42;16.27;;;;;;;;;;5030090;28;20022;-37
2022/02/10 23:02:32;;;;;;;27.75;16.48;;;;;;;;;;5032235;28;20080;-36
2022/02/10 23:04:58;;;;;;;25.50;14.50;;;;;;;;;;5031554;28;20021;-36
2022/02/10 23:07:24;;;;;;;28.42;15.73;;;;;;;;;;5031950;28;20583;-36
2022/02/10 23:09:53;;;;;;;25.80;14.43;;;;;;;;;;5030839;28;20426;-36
2022/02/10 23:12:19;;;;;;;21.42;13.45;;;;;;;;;;5031678;28;20041;-35
2022/02/10 23:14:45;;;;;;;29.65;15.15;;;;;;;;;;5022786;28;20111;-36
2022/02/10 23:17:11;;;;;;;20.30;11.60;;;;;;;;;;5031138;28;20466;-36
2022/02/10 23:19:40;;;;;;;22.83;11.65;;;;;;;;;;5031721;28;20033;-36
2022/02/10 23:22:07;;;;;;;20.13;12.50;;;;;;;;;;5032089;28;20488;-36
2022/02/10 23:24:33;;;;;;;21.77;11.70;;;;;;;;;;5031614;28;20040;-37
2022/02/10 23:26:59;;;;;;;22.70;11.95;;;;;;;;;;5030511;28;20148;-37
2022/02/10 23:29:25;;;;;;;24.27;12.18;;;;;;;;;;5030666;28;20483;-38
2022/02/10 23:31:51;;;;;;;18.92;10.85;;;;;;;;;;5031401;28;20067;-38
2022/02/10 23:34:17;;;;;;;20.63;11.30;;;;;;;;;;5031288;28;20038;-36
2022/02/10 23:36:52;;;;;;;21.45;11.43;;;;;;;;;;5030909;28;20883;-35
2022/02/10 23:39:24;;;;;;;16.00;10.00;;;;;;;;;;5031267;28;20683;-35
2022/02/10 23:44:27;;;;;;;19.97;10.70;;;;;;;;;;5011848;28;20038;-37
2022/02/10 23:46:54;;;;;;;23.80;10.88;;;;;;;;;;5030433;28;20033;-36
2022/02/10 23:49:24;;;;;;;20.27;10.75;;;;;;;;;;5030938;28;20033;-37
2022/02/10 23:51:57;;;;;;;19.83;10.68;;;;;;;;;;5030569;28;20041;-37
2022/02/10 23:54:24;;;;;;;21.17;10.60;;;;;;;;;;5011316;28;20053;-37
2022/02/10 23:56:57;;;;;;;22.20;10.95;;;;;;;;;;5027629;28;20533;-36
2022/02/10 23:59:37;;;;;;;16.52;9.98;;;;;;;;;;5030451;28;20471;-35
